sensor_id;sensor_type;location;lat;lon;timestamp;temperature;humidity
25482;DHT22;13395;50.752;4.268;2023-03-19T00:02:00;12.60;99.90
25482;DHT22;13395;50.752;4.268;2023-03-19T00:04:27;12.60;99.90
25482;DHT22;13395;50.752;4.268;2023-03-19T00:06:53;12.60;99.90
25482;DHT22;13395;50.752;4.268;2023-03-19T00:09:19;12.60;99.90
25482;DHT22;13395;50.752;4.268;2023-03-19T00:11:45;12.60;99.90
25482;DHT22;13395;50.752;4.268;2023-03-19T00:14:11;12.50;99.90
25482;DHT22;13395;50.752;4.268;2023-03-19T00:16:37;12.50;99.90
25482;DHT22;13395;50.752;4.268;2023-03-19T00:19:03;12.50;99.90
25482;DHT22;13395;50.752;4.268;2023-03-19T00:21:30;12.40;99.90
25482;DHT22;13395;50.752;4.268;2023-03-19T00:23:57;12.40;99.90
25482;DHT22;13395;50.752;4.268;2023-03-19T00:26:29;12.40;99.90
25482;DHT22;13395;50.752;4.268;2023-03-19T00:28:56;12.50;99.90
25482;DHT22;13395;50.752;4.268;2023-03-19T00:31:23;12.50;99.90
25482;DHT22;13395;50.752;4.268;2023-03-19T00:33:49;12.40;99.90
25482;DHT22;13395;50.752;4.268;2023-03-19T00:36:15;12.40;99.90
25482;DHT22;13395;50.752;4.268;2023-03-19T00:38:42;12.30;99.90
25482;DHT22;13395;50.752;4.268;2023-03-19T00:41:09;12.40;99.90
25482;DHT22;13395;50.752;4.268;2023-03-19T00:43:35;12.40;99.90
25482;DHT22;13395;50.752;4.268;2023-03-19T00:46:00;12.40;99.90
25482;DHT22;13395;50.752;4.268;2023-03-19T00:48:26;12.50;99.90
25482;DHT22;13395;50.752;4.268;2023-03-19T00:50:52;12.40;99.90
25482;DHT22;13395;50.752;4.268;2023-03-19T00:53:18;12.40;99.90
25482;DHT22;13395;50.752;4.268;2023-03-19T00:55:44;12.40;99.90
25482;DHT22;13395;50.752;4.268;2023-03-19T00:58:09;12.40;99.90
25482;DHT22;13395;50.752;4.268;2023-03-19T01:00:36;12.50;99.90
25482;DHT22;13395;50.752;4.268;2023-03-19T01:03:03;12.50;99.90
25482;DHT22;13395;50.752;4.268;2023-03-19T01:05:29;12.40;99.90
25482;DHT22;13395;50.752;4.268;2023-03-19T01:07:56;12.30;99.90
25482;DHT22;13395;50.752;4.268;2023-03-19T01:10:22;12.40;99.90
25482;DHT22;13395;50.752;4.268;2023-03-19T01:12:48;12.60;99.90
25482;DHT22;13395;50.752;4.268;2023-03-19T01:15:15;12.60;99.90
25482;DHT22;13395;50.752;4.268;2023-03-19T01:17:41;12.60;99.90
25482;DHT22;13395;50.752;4.268;2023-03-19T01:20:07;12.60;99.90
25482;DHT22;13395;50.752;4.268;2023-03-19T01:22:38;12.40;99.90
25482;DHT22;13395;50.752;4.268;2023-03-19T01:25:06;12.40;99.90
25482;DHT22;13395;50.752;4.268;2023-03-19T01:27:32;12.50;99.90
25482;DHT22;13395;50.752;4.268;2023-03-19T01:29:58;12.50;99.90
25482;DHT22;13395;50.752;4.268;2023-03-19T01:32:24;12.60;99.90
25482;DHT22;13395;50.752;4.268;2023-03-19T01:34:50;12.60;99.90
25482;DHT22;13395;50.752;4.268;2023-03-19T01:37:16;12.50;99.90
25482;DHT22;13395;50.752;4.268;2023-03-19T01:39:41;12.60;99.90
25482;DHT22;13395;50.752;4.268;2023-03-19T01:42:07;12.60;99.90
25482;DHT22;13395;50.752;4.268;2023-03-19T01:44:35;12.60;99.90
25482;DHT22;13395;50.752;4.268;2023-03-19T01:47:05;12.60;99.90
25482;DHT22;13395;50.752;4.268;2023-03-19T01:49:35;12.60;99.90
25482;DHT22;13395;50.752;4.268;2023-03-19T01:52:03;12.60;99.90
25482;DHT22;13395;50.752;4.268;2023-03-19T01:54:30;12.60;99.90
25482;DHT22;13395;50.752;4.268;2023-03-19T01:57:04;12.70;99.90
25482;DHT22;13395;50.752;4.268;2023-03-19T01:59:44;12.70;99.90
25482;DHT22;13395;50.752;4.268;2023-03-19T02:02:21;12.60;99.90
25482;DHT22;13395;50.752;4.268;2023-03-19T02:04:58;12.70;99.90
25482;DHT22;13395;50.752;4.268;2023-03-19T02:07:25;12.70;99.90
25482;DHT22;13395;50.752;4.268;2023-03-19T02:09:52;12.60;99.90
25482;DHT22;13395;50.752;4.268;2023-03-19T02:12:18;12.50;99.90
25482;DHT22;13395;50.752;4.268;2023-03-19T02:14:44;12.50;99.90
25482;DHT22;13395;50.752;4.268;2023-03-19T02:17:10;12.60;99.90
25482;DHT22;13395;50.752;4.268;2023-03-19T02:22:09;12.50;99.90
25482;DHT22;13395;50.752;4.268;2023-03-19T02:24:47;12.50;99.90
25482;DHT22;13395;50.752;4.268;2023-03-19T02:27:14;12.40;99.90
25482;DHT22;13395;50.752;4.268;2023-03-19T02:29:40;12.40;99.90
25482;DHT22;13395;50.752;4.268;2023-03-19T02:32:06;12.50;99.90
25482;DHT22;13395;50.752;4.268;2023-03-19T02:34:34;12.60;99.90
25482;DHT22;13395;50.752;4.268;2023-03-19T02:37:04;12.70;99.90
25482;DHT22;13395;50.752;4.268;2023-03-19T02:39:56;12.60;99.90
25482;DHT22;13395;50.752;4.268;2023-03-19T02:42:24;12.60;99.90
25482;DHT22;13395;50.752;4.268;2023-03-19T02:44:51;12.60;99.90
25482;DHT22;13395;50.752;4.268;2023-03-19T02:47:17;12.60;99.90
25482;DHT22;13395;50.752;4.268;2023-03-19T02:49:43;12.60;99.90
25482;DHT22;13395;50.752;4.268;2023-03-19T02:52:09;12.60;99.90
25482;DHT22;13395;50.752;4.268;2023-03-19T02:54:35;12.60;99.90
25482;DHT22;13395;50.752;4.268;2023-03-19T02:57:01;12.70;99.90
25482;DHT22;13395;50.752;4.268;2023-03-19T02:59:26;12.60;99.90
25482;DHT22;13395;50.752;4.268;2023-03-19T03:01:52;12.70;99.90
25482;DHT22;13395;50.752;4.268;2023-03-19T03:04:18;12.60;99.90
25482;DHT22;13395;50.752;4.268;2023-03-19T03:06:43;12.60;99.90
25482;DHT22;13395;50.752;4.268;2023-03-19T03:09:10;12.60;99.90
25482;DHT22;13395;50.752;4.268;2023-03-19T03:11:37;12.60;99.90
25482;DHT22;13395;50.752;4.268;2023-03-19T03:14:02;12.50;99.90
25482;DHT22;13395;50.752;4.268;2023-03-19T03:16:28;12.50;99.90
25482;DHT22;13395;50.752;4.268;2023-03-19T03:18:54;12.50;99.90
25482;DHT22;13395;50.752;4.268;2023-03-19T03:21:20;12.50;99.90
25482;DHT22;13395;50.752;4.268;2023-03-19T03:23:46;12.60;99.90
25482;DHT22;13395;50.752;4.268;2023-03-19T03:26:13;12.40;99.90
25482;DHT22;13395;50.752;4.268;2023-03-19T03:28:39;12.40;99.90
25482;DHT22;13395;50.752;4.268;2023-03-19T03:31:05;12.30;99.90
25482;DHT22;13395;50.752;4.268;2023-03-19T03:33:31;12.10;99.90
25482;DHT22;13395;50.752;4.268;2023-03-19T03:35:57;12.00;99.90
25482;DHT22;13395;50.752;4.268;2023-03-19T03:38:23;12.10;99.90
25482;DHT22;13395;50.752;4.268;2023-03-19T03:40:52;12.10;99.90
25482;DHT22;13395;50.752;4.268;2023-03-19T03:43:19;12.10;99.90
25482;DHT22;13395;50.752;4.268;2023-03-19T03:45:46;12.00;99.90
25482;DHT22;13395;50.752;4.268;2023-03-19T03:48:12;11.80;99.90
25482;DHT22;13395;50.752;4.268;2023-03-19T03:50:38;11.80;99.90
25482;DHT22;13395;50.752;4.268;2023-03-19T03:53:05;11.70;99.90
25482;DHT22;13395;50.752;4.268;2023-03-19T03:55:30;11.70;99.90
25482;DHT22;13395;50.752;4.268;2023-03-19T03:57:56;11.60;99.90
25482;DHT22;13395;50.752;4.268;2023-03-19T04:00:22;11.60;99.90
25482;DHT22;13395;50.752;4.268;2023-03-19T04:02:49;11.60;99.90
25482;DHT22;13395;50.752;4.268;2023-03-19T04:05:15;11.70;99.90
25482;DHT22;13395;50.752;4.268;2023-03-19T04:07:42;11.60;99.90
25482;DHT22;13395;50.752;4.268;2023-03-19T04:10:09;11.60;99.90
25482;DHT22;13395;50.752;4.268;2023-03-19T04:12:36;11.60;99.90
25482;DHT22;13395;50.752;4.268;2023-03-19T04:15:03;11.60;99.90
25482;DHT22;13395;50.752;4.268;2023-03-19T04:17:29;11.60;99.90
25482;DHT22;13395;50.752;4.268;2023-03-19T04:19:55;11.60;99.90
25482;DHT22;13395;50.752;4.268;2023-03-19T04:22:20;11.50;99.90
25482;DHT22;13395;50.752;4.268;2023-03-19T04:24:46;11.50;99.90
25482;DHT22;13395;50.752;4.268;2023-03-19T04:27:12;11.40;99.90
25482;DHT22;13395;50.752;4.268;2023-03-19T04:29:37;11.40;99.90
25482;DHT22;13395;50.752;4.268;2023-03-19T04:32:03;11.40;99.90
25482;DHT22;13395;50.752;4.268;2023-03-19T04:34:29;11.20;99.90
25482;DHT22;13395;50.752;4.268;2023-03-19T04:36:55;11.10;99.90
25482;DHT22;13395;50.752;4.268;2023-03-19T04:39:21;11.00;99.90
25482;DHT22;13395;50.752;4.268;2023-03-19T04:41:47;11.00;99.90
25482;DHT22;13395;50.752;4.268;2023-03-19T04:44:13;11.00;99.90
25482;DHT22;13395;50.752;4.268;2023-03-19T04:46:39;10.90;99.90
25482;DHT22;13395;50.752;4.268;2023-03-19T04:49:05;10.90;99.90
25482;DHT22;13395;50.752;4.268;2023-03-19T04:51:30;10.90;99.90
25482;DHT22;13395;50.752;4.268;2023-03-19T04:53:56;10.90;99.90
25482;DHT22;13395;50.752;4.268;2023-03-19T04:56:22;10.90;99.90
25482;DHT22;13395;50.752;4.268;2023-03-19T04:58:48;10.80;99.90
25482;DHT22;13395;50.752;4.268;2023-03-19T05:01:13;11.00;99.90
25482;DHT22;13395;50.752;4.268;2023-03-19T05:03:39;10.80;99.90
25482;DHT22;13395;50.752;4.268;2023-03-19T05:06:05;10.80;99.90
25482;DHT22;13395;50.752;4.268;2023-03-19T05:08:31;10.70;99.90
25482;DHT22;13395;50.752;4.268;2023-03-19T05:10:57;10.70;99.90
25482;DHT22;13395;50.752;4.268;2023-03-19T05:13:23;10.60;99.90
25482;DHT22;13395;50.752;4.268;2023-03-19T05:15:52;10.60;99.90
25482;DHT22;13395;50.752;4.268;2023-03-19T05:18:18;10.50;99.90
25482;DHT22;13395;50.752;4.268;2023-03-19T05:20:44;10.50;99.90
25482;DHT22;13395;50.752;4.268;2023-03-19T05:23:10;10.40;99.90
25482;DHT22;13395;50.752;4.268;2023-03-19T05:25:35;10.40;99.90
25482;DHT22;13395;50.752;4.268;2023-03-19T05:28:02;10.40;99.90
25482;DHT22;13395;50.752;4.268;2023-03-19T05:30:28;10.30;99.90
25482;DHT22;13395;50.752;4.268;2023-03-19T05:32:57;10.30;99.90
25482;DHT22;13395;50.752;4.268;2023-03-19T05:35:24;10.30;99.90
25482;DHT22;13395;50.752;4.268;2023-03-19T05:37:50;10.40;99.90
25482;DHT22;13395;50.752;4.268;2023-03-19T05:40:16;10.30;99.90
25482;DHT22;13395;50.752;4.268;2023-03-19T05:42:42;10.20;99.90
25482;DHT22;13395;50.752;4.268;2023-03-19T05:45:07;10.20;99.90
25482;DHT22;13395;50.752;4.268;2023-03-19T05:47:33;10.10;99.90
25482;DHT22;13395;50.752;4.268;2023-03-19T05:49:59;10.10;99.90
25482;DHT22;13395;50.752;4.268;2023-03-19T05:52:25;10.10;99.90
25482;DHT22;13395;50.752;4.268;2023-03-19T05:54:51;10.20;99.90
25482;DHT22;13395;50.752;4.268;2023-03-19T05:57:16;10.20;99.90
25482;DHT22;13395;50.752;4.268;2023-03-19T05:59:42;10.20;99.90
25482;DHT22;13395;50.752;4.268;2023-03-19T06:02:08;10.30;99.90
25482;DHT22;13395;50.752;4.268;2023-03-19T06:04:34;10.30;99.90
25482;DHT22;13395;50.752;4.268;2023-03-19T06:07:00;10.30;99.90
25482;DHT22;13395;50.752;4.268;2023-03-19T06:09:25;10.30;99.90
25482;DHT22;13395;50.752;4.268;2023-03-19T06:11:51;10.30;99.90
25482;DHT22;13395;50.752;4.268;2023-03-19T06:14:17;10.20;99.90
25482;DHT22;13395;50.752;4.268;2023-03-19T06:16:42;10.20;99.90
25482;DHT22;13395;50.752;4.268;2023-03-19T06:19:08;10.30;99.90
25482;DHT22;13395;50.752;4.268;2023-03-19T06:21:34;10.30;99.90
25482;DHT22;13395;50.752;4.268;2023-03-19T06:24:00;10.40;99.90
25482;DHT22;13395;50.752;4.268;2023-03-19T06:26:26;10.50;99.90
25482;DHT22;13395;50.752;4.268;2023-03-19T06:28:52;10.40;99.90
25482;DHT22;13395;50.752;4.268;2023-03-19T06:31:18;10.40;99.90
25482;DHT22;13395;50.752;4.268;2023-03-19T06:33:44;10.40;99.90
25482;DHT22;13395;50.752;4.268;2023-03-19T06:36:10;10.50;99.90
25482;DHT22;13395;50.752;4.268;2023-03-19T06:38:35;10.40;99.90
25482;DHT22;13395;50.752;4.268;2023-03-19T06:41:02;10.30;99.90
25482;DHT22;13395;50.752;4.268;2023-03-19T06:43:28;10.30;99.90
25482;DHT22;13395;50.752;4.268;2023-03-19T06:45:53;10.40;99.90
25482;DHT22;13395;50.752;4.268;2023-03-19T06:48:19;10.40;99.90
25482;DHT22;13395;50.752;4.268;2023-03-19T06:50:45;10.40;99.90
25482;DHT22;13395;50.752;4.268;2023-03-19T06:53:12;10.40;99.90
25482;DHT22;13395;50.752;4.268;2023-03-19T06:55:38;10.50;99.90
25482;DHT22;13395;50.752;4.268;2023-03-19T06:58:04;10.50;99.90
25482;DHT22;13395;50.752;4.268;2023-03-19T07:00:31;10.50;99.90
25482;DHT22;13395;50.752;4.268;2023-03-19T07:02:57;10.60;99.90
25482;DHT22;13395;50.752;4.268;2023-03-19T07:05:23;10.60;99.90
25482;DHT22;13395;50.752;4.268;2023-03-19T07:07:48;10.80;99.90
25482;DHT22;13395;50.752;4.268;2023-03-19T07:10:19;11.10;99.90
25482;DHT22;13395;50.752;4.268;2023-03-19T07:12:45;11.50;99.90
25482;DHT22;13395;50.752;4.268;2023-03-19T07:15:11;11.70;99.90
25482;DHT22;13395;50.752;4.268;2023-03-19T07:17:36;11.90;99.90
25482;DHT22;13395;50.752;4.268;2023-03-19T07:20:02;12.00;99.90
25482;DHT22;13395;50.752;4.268;2023-03-19T07:22:28;12.60;99.90
25482;DHT22;13395;50.752;4.268;2023-03-19T07:24:54;13.50;99.90
25482;DHT22;13395;50.752;4.268;2023-03-19T07:27:19;14.20;99.90
25482;DHT22;13395;50.752;4.268;2023-03-19T07:29:45;14.90;99.90
25482;DHT22;13395;50.752;4.268;2023-03-19T07:32:11;15.40;99.90
25482;DHT22;13395;50.752;4.268;2023-03-19T07:34:36;15.60;99.90
25482;DHT22;13395;50.752;4.268;2023-03-19T07:37:02;16.00;99.90
25482;DHT22;13395;50.752;4.268;2023-03-19T07:39:29;16.50;99.90
25482;DHT22;13395;50.752;4.268;2023-03-19T07:41:54;16.90;99.90
25482;DHT22;13395;50.752;4.268;2023-03-19T07:44:20;17.10;99.90
25482;DHT22;13395;50.752;4.268;2023-03-19T07:46:45;17.30;99.90
25482;DHT22;13395;50.752;4.268;2023-03-19T07:49:11;18.00;99.90
25482;DHT22;13395;50.752;4.268;2023-03-19T07:51:37;18.80;99.90
25482;DHT22;13395;50.752;4.268;2023-03-19T07:54:03;19.60;99.90
25482;DHT22;13395;50.752;4.268;2023-03-19T07:56:28;20.40;99.90
25482;DHT22;13395;50.752;4.268;2023-03-19T07:58:54;21.30;99.90
25482;DHT22;13395;50.752;4.268;2023-03-19T08:01:20;21.70;99.90
25482;DHT22;13395;50.752;4.268;2023-03-19T08:03:46;22.20;99.90
25482;DHT22;13395;50.752;4.268;2023-03-19T08:06:13;22.50;98.70
25482;DHT22;13395;50.752;4.268;2023-03-19T08:08:39;22.80;98.20
25482;DHT22;13395;50.752;4.268;2023-03-19T08:11:05;23.10;96.10
25482;DHT22;13395;50.752;4.268;2023-03-19T08:13:31;23.60;95.70
25482;DHT22;13395;50.752;4.268;2023-03-19T08:15:56;24.30;94.30
25482;DHT22;13395;50.752;4.268;2023-03-19T08:18:22;25.00;93.00
25482;DHT22;13395;50.752;4.268;2023-03-19T08:20:48;25.20;92.50
25482;DHT22;13395;50.752;4.268;2023-03-19T08:23:14;25.90;90.40
25482;DHT22;13395;50.752;4.268;2023-03-19T08:25:40;26.40;89.40
25482;DHT22;13395;50.752;4.268;2023-03-19T08:28:06;26.40;86.50
25482;DHT22;13395;50.752;4.268;2023-03-19T08:30:35;26.30;87.30
25482;DHT22;13395;50.752;4.268;2023-03-19T08:33:01;26.00;86.00
25482;DHT22;13395;50.752;4.268;2023-03-19T08:35:27;26.10;85.80
25482;DHT22;13395;50.752;4.268;2023-03-19T08:37:53;26.20;83.60
25482;DHT22;13395;50.752;4.268;2023-03-19T08:40:19;26.40;83.70
25482;DHT22;13395;50.752;4.268;2023-03-19T08:42:45;26.40;82.80
25482;DHT22;13395;50.752;4.268;2023-03-19T08:45:12;26.90;82.70
25482;DHT22;13395;50.752;4.268;2023-03-19T08:47:38;27.00;80.80
25482;DHT22;13395;50.752;4.268;2023-03-19T08:50:04;26.20;82.40
25482;DHT22;13395;50.752;4.268;2023-03-19T08:52:30;26.50;81.70
25482;DHT22;13395;50.752;4.268;2023-03-19T08:54:56;25.50;81.00
25482;DHT22;13395;50.752;4.268;2023-03-19T08:57:21;24.40;84.50
25482;DHT22;13395;50.752;4.268;2023-03-19T08:59:47;23.30;86.40
25482;DHT22;13395;50.752;4.268;2023-03-19T09:02:13;22.00;90.30
25482;DHT22;13395;50.752;4.268;2023-03-19T09:04:42;21.30;91.50
25482;DHT22;13395;50.752;4.268;2023-03-19T09:07:09;20.70;92.90
25482;DHT22;13395;50.752;4.268;2023-03-19T09:09:41;20.00;94.50
25482;DHT22;13395;50.752;4.268;2023-03-19T09:12:08;19.30;95.80
25482;DHT22;13395;50.752;4.268;2023-03-19T09:14:35;18.90;96.50
25482;DHT22;13395;50.752;4.268;2023-03-19T09:17:02;18.10;97.80
25482;DHT22;13395;50.752;4.268;2023-03-19T09:19:27;17.60;99.20
25482;DHT22;13395;50.752;4.268;2023-03-19T09:21:53;17.40;99.90
25482;DHT22;13395;50.752;4.268;2023-03-19T09:24:20;17.30;99.90
25482;DHT22;13395;50.752;4.268;2023-03-19T09:26:45;17.30;99.90
25482;DHT22;13395;50.752;4.268;2023-03-19T09:29:12;17.50;99.90
25482;DHT22;13395;50.752;4.268;2023-03-19T09:31:38;17.70;99.90
25482;DHT22;13395;50.752;4.268;2023-03-19T09:34:04;17.90;99.90
25482;DHT22;13395;50.752;4.268;2023-03-19T09:36:31;17.80;99.90
25482;DHT22;13395;50.752;4.268;2023-03-19T09:38:57;17.50;99.90
25482;DHT22;13395;50.752;4.268;2023-03-19T09:44:26;17.30;99.90
25482;DHT22;13395;50.752;4.268;2023-03-19T09:49:46;17.50;99.90
25482;DHT22;13395;50.752;4.268;2023-03-19T09:52:40;17.80;99.90
25482;DHT22;13395;50.752;4.268;2023-03-19T09:55:22;17.90;99.90
25482;DHT22;13395;50.752;4.268;2023-03-19T09:57:52;17.70;99.90
25482;DHT22;13395;50.752;4.268;2023-03-19T10:02:45;17.20;99.90
25482;DHT22;13395;50.752;4.268;2023-03-19T10:05:18;17.20;99.90
25482;DHT22;13395;50.752;4.268;2023-03-19T10:08:16;17.40;99.90
25482;DHT22;13395;50.752;4.268;2023-03-19T10:13:41;17.80;99.90
25482;DHT22;13395;50.752;4.268;2023-03-19T10:16:21;17.70;99.90
25482;DHT22;13395;50.752;4.268;2023-03-19T10:18:50;17.50;99.90
25482;DHT22;13395;50.752;4.268;2023-03-19T10:21:44;17.40;99.90
25482;DHT22;13395;50.752;4.268;2023-03-19T10:24:20;17.60;99.90
25482;DHT22;13395;50.752;4.268;2023-03-19T10:26:47;17.50;99.90
25482;DHT22;13395;50.752;4.268;2023-03-19T10:29:17;17.50;99.90
25482;DHT22;13395;50.752;4.268;2023-03-19T10:32:05;17.30;99.90
25482;DHT22;13395;50.752;4.268;2023-03-19T10:34:51;17.20;99.90
25482;DHT22;13395;50.752;4.268;2023-03-19T10:37:26;17.00;99.90
25482;DHT22;13395;50.752;4.268;2023-03-19T10:39:59;16.80;99.90
25482;DHT22;13395;50.752;4.268;2023-03-19T10:45:34;16.50;99.90
25482;DHT22;13395;50.752;4.268;2023-03-19T10:48:02;16.50;99.90
25482;DHT22;13395;50.752;4.268;2023-03-19T10:50:33;16.30;99.90
25482;DHT22;13395;50.752;4.268;2023-03-19T10:56:01;15.50;99.90
25482;DHT22;13395;50.752;4.268;2023-03-19T10:58:29;15.00;99.90
25482;DHT22;13395;50.752;4.268;2023-03-19T11:01:05;14.60;99.90
25482;DHT22;13395;50.752;4.268;2023-03-19T11:03:36;14.20;99.90
25482;DHT22;13395;50.752;4.268;2023-03-19T11:08:33;14.20;99.90
25482;DHT22;13395;50.752;4.268;2023-03-19T11:10:59;14.50;99.90
25482;DHT22;13395;50.752;4.268;2023-03-19T11:13:26;14.90;99.90
25482;DHT22;13395;50.752;4.268;2023-03-19T11:15:54;15.80;99.90
25482;DHT22;13395;50.752;4.268;2023-03-19T11:18:23;17.10;99.90
25482;DHT22;13395;50.752;4.268;2023-03-19T11:20:56;17.80;99.90
25482;DHT22;13395;50.752;4.268;2023-03-19T11:23:26;18.40;99.90
25482;DHT22;13395;50.752;4.268;2023-03-19T11:25:53;18.50;99.90
25482;DHT22;13395;50.752;4.268;2023-03-19T11:28:22;18.30;99.90
25482;DHT22;13395;50.752;4.268;2023-03-19T11:30:55;17.80;99.90
25482;DHT22;13395;50.752;4.268;2023-03-19T11:33:35;16.90;99.90
25482;DHT22;13395;50.752;4.268;2023-03-19T11:39:57;16.10;99.90
25482;DHT22;13395;50.752;4.268;2023-03-19T11:44:44;15.70;99.90
25482;DHT22;13395;50.752;4.268;2023-03-19T11:52:40;15.30;99.90
25482;DHT22;13395;50.752;4.268;2023-03-19T11:58:04;15.40;99.90
25482;DHT22;13395;50.752;4.268;2023-03-19T12:00:50;15.40;99.90
25482;DHT22;13395;50.752;4.268;2023-03-19T12:06:50;15.90;99.90
25482;DHT22;13395;50.752;4.268;2023-03-19T12:26:00;18.40;99.90
25482;DHT22;13395;50.752;4.268;2023-03-19T12:28:52;19.10;99.90
25482;DHT22;13395;50.752;4.268;2023-03-19T12:36:44;18.30;99.90
25482;DHT22;13395;50.752;4.268;2023-03-19T12:39:17;18.20;99.90
25482;DHT22;13395;50.752;4.268;2023-03-19T12:41:45;17.60;99.90
25482;DHT22;13395;50.752;4.268;2023-03-19T12:44:31;17.10;99.90
25482;DHT22;13395;50.752;4.268;2023-03-19T12:47:20;16.60;99.90
25482;DHT22;13395;50.752;4.268;2023-03-19T12:50:00;16.00;99.90
25482;DHT22;13395;50.752;4.268;2023-03-19T12:52:39;15.50;99.90
25482;DHT22;13395;50.752;4.268;2023-03-19T12:55:26;15.50;99.90
25482;DHT22;13395;50.752;4.268;2023-03-19T12:58:21;15.50;99.90
25482;DHT22;13395;50.752;4.268;2023-03-19T13:05:57;16.20;99.90
25482;DHT22;13395;50.752;4.268;2023-03-19T13:08:47;17.00;99.90
25482;DHT22;13395;50.752;4.268;2023-03-19T13:11:23;17.10;99.90
25482;DHT22;13395;50.752;4.268;2023-03-19T13:16:51;17.00;99.90
25482;DHT22;13395;50.752;4.268;2023-03-19T13:19:42;17.00;99.90
25482;DHT22;13395;50.752;4.268;2023-03-19T13:22:15;17.10;99.90
25482;DHT22;13395;50.752;4.268;2023-03-19T13:24:42;17.90;99.90
25482;DHT22;13395;50.752;4.268;2023-03-19T13:27:33;18.70;99.90
25482;DHT22;13395;50.752;4.268;2023-03-19T13:32:48;18.50;99.90
25482;DHT22;13395;50.752;4.268;2023-03-19T13:38:06;17.30;99.90
25482;DHT22;13395;50.752;4.268;2023-03-19T13:57:14;16.20;99.90
25482;DHT22;13395;50.752;4.268;2023-03-19T13:59:46;15.60;99.90
25482;DHT22;13395;50.752;4.268;2023-03-19T14:05:03;15.30;99.90
25482;DHT22;13395;50.752;4.268;2023-03-19T14:07:37;15.10;99.90
25482;DHT22;13395;50.752;4.268;2023-03-19T14:10:14;15.20;99.90
25482;DHT22;13395;50.752;4.268;2023-03-19T14:12:42;15.30;99.90
25482;DHT22;13395;50.752;4.268;2023-03-19T14:25:25;15.70;99.90
25482;DHT22;13395;50.752;4.268;2023-03-19T14:27:59;15.40;99.90
25482;DHT22;13395;50.752;4.268;2023-03-19T14:30:59;15.20;99.90
25482;DHT22;13395;50.752;4.268;2023-03-19T14:33:31;15.00;99.90
25482;DHT22;13395;50.752;4.268;2023-03-19T14:36:03;14.90;99.90
25482;DHT22;13395;50.752;4.268;2023-03-19T14:38:47;14.60;99.90
25482;DHT22;13395;50.752;4.268;2023-03-19T14:41:17;14.60;99.90
25482;DHT22;13395;50.752;4.268;2023-03-19T14:46:58;14.60;99.90
25482;DHT22;13395;50.752;4.268;2023-03-19T14:49:58;14.90;99.90
25482;DHT22;13395;50.752;4.268;2023-03-19T14:52:45;14.80;99.90
25482;DHT22;13395;50.752;4.268;2023-03-19T14:55:15;14.90;99.90
25482;DHT22;13395;50.752;4.268;2023-03-19T14:57:42;15.00;99.90
25482;DHT22;13395;50.752;4.268;2023-03-19T15:00:18;15.00;99.90
25482;DHT22;13395;50.752;4.268;2023-03-19T15:02:49;15.10;99.90
25482;DHT22;13395;50.752;4.268;2023-03-19T15:05:26;15.20;99.90
25482;DHT22;13395;50.752;4.268;2023-03-19T15:07:55;15.30;99.90
25482;DHT22;13395;50.752;4.268;2023-03-19T15:10:28;15.20;99.90
25482;DHT22;13395;50.752;4.268;2023-03-19T15:18:59;15.00;99.90
25482;DHT22;13395;50.752;4.268;2023-03-19T15:21:25;15.00;99.90
25482;DHT22;13395;50.752;4.268;2023-03-19T15:23:53;14.90;99.90
25482;DHT22;13395;50.752;4.268;2023-03-19T15:26:33;14.70;99.90
25482;DHT22;13395;50.752;4.268;2023-03-19T15:28:59;14.60;99.90
25482;DHT22;13395;50.752;4.268;2023-03-19T15:31:46;14.60;99.90
25482;DHT22;13395;50.752;4.268;2023-03-19T15:34:25;14.50;99.90
25482;DHT22;13395;50.752;4.268;2023-03-19T15:37:04;14.50;99.90
25482;DHT22;13395;50.752;4.268;2023-03-19T15:39:35;14.50;99.90
25482;DHT22;13395;50.752;4.268;2023-03-19T15:42:03;14.50;99.90
25482;DHT22;13395;50.752;4.268;2023-03-19T15:44:39;14.50;99.90
25482;DHT22;13395;50.752;4.268;2023-03-19T15:47:09;14.50;99.90
25482;DHT22;13395;50.752;4.268;2023-03-19T15:49:44;14.60;99.90
25482;DHT22;13395;50.752;4.268;2023-03-19T15:52:15;14.50;99.90
25482;DHT22;13395;50.752;4.268;2023-03-19T15:54:41;14.40;99.90
25482;DHT22;13395;50.752;4.268;2023-03-19T15:57:12;14.30;99.90
25482;DHT22;13395;50.752;4.268;2023-03-19T15:59:39;14.20;99.90
25482;DHT22;13395;50.752;4.268;2023-03-19T16:02:32;14.20;99.90
25482;DHT22;13395;50.752;4.268;2023-03-19T16:04:59;14.30;99.90
25482;DHT22;13395;50.752;4.268;2023-03-19T16:12:54;13.90;99.90
25482;DHT22;13395;50.752;4.268;2023-03-19T16:23:37;13.70;99.90
25482;DHT22;13395;50.752;4.268;2023-03-19T16:26:26;13.50;99.90
25482;DHT22;13395;50.752;4.268;2023-03-19T16:31:43;13.40;99.90
25482;DHT22;13395;50.752;4.268;2023-03-19T16:34:27;13.40;99.90
25482;DHT22;13395;50.752;4.268;2023-03-19T16:36:53;13.10;99.90
25482;DHT22;13395;50.752;4.268;2023-03-19T16:39:25;13.00;99.90
25482;DHT22;13395;50.752;4.268;2023-03-19T16:44:38;12.80;99.90
25482;DHT22;13395;50.752;4.268;2023-03-19T16:47:09;12.80;99.90
25482;DHT22;13395;50.752;4.268;2023-03-19T16:49:35;12.80;99.90
25482;DHT22;13395;50.752;4.268;2023-03-19T16:52:01;12.80;99.90
25482;DHT22;13395;50.752;4.268;2023-03-19T16:54:26;12.80;99.90
25482;DHT22;13395;50.752;4.268;2023-03-19T16:56:52;12.80;99.90
25482;DHT22;13395;50.752;4.268;2023-03-19T16:59:28;12.70;99.90
25482;DHT22;13395;50.752;4.268;2023-03-19T17:01:55;12.60;99.90
25482;DHT22;13395;50.752;4.268;2023-03-19T17:04:21;12.50;99.90
25482;DHT22;13395;50.752;4.268;2023-03-19T17:06:48;12.50;99.90
25482;DHT22;13395;50.752;4.268;2023-03-19T17:09:14;12.50;99.90
25482;DHT22;13395;50.752;4.268;2023-03-19T17:11:41;12.40;99.90
25482;DHT22;13395;50.752;4.268;2023-03-19T17:14:14;12.40;99.90
25482;DHT22;13395;50.752;4.268;2023-03-19T17:16:42;12.40;99.90
25482;DHT22;13395;50.752;4.268;2023-03-19T17:19:39;12.40;99.90
25482;DHT22;13395;50.752;4.268;2023-03-19T17:22:04;12.30;99.90
25482;DHT22;13395;50.752;4.268;2023-03-19T17:24:33;12.30;99.90
25482;DHT22;13395;50.752;4.268;2023-03-19T17:27:01;12.30;99.90
25482;DHT22;13395;50.752;4.268;2023-03-19T17:29:28;12.30;99.90
25482;DHT22;13395;50.752;4.268;2023-03-19T17:31:55;12.30;99.90
25482;DHT22;13395;50.752;4.268;2023-03-19T17:34:24;12.30;99.90
25482;DHT22;13395;50.752;4.268;2023-03-19T17:37:00;12.10;99.90
25482;DHT22;13395;50.752;4.268;2023-03-19T17:39:27;12.10;99.90
25482;DHT22;13395;50.752;4.268;2023-03-19T17:41:57;12.00;99.90
25482;DHT22;13395;50.752;4.268;2023-03-19T17:44:23;12.00;99.90
25482;DHT22;13395;50.752;4.268;2023-03-19T17:46:51;12.10;99.90
25482;DHT22;13395;50.752;4.268;2023-03-19T17:49:26;12.00;99.90
25482;DHT22;13395;50.752;4.268;2023-03-19T17:51:53;12.10;99.90
25482;DHT22;13395;50.752;4.268;2023-03-19T17:54:19;12.00;99.90
25482;DHT22;13395;50.752;4.268;2023-03-19T17:56:45;11.90;99.90